Time;durP1;ratioP1;P1;durP2;ratioP2;P2;SDS_P1;SDS_P2;PMS_P1;PMS_P2;Temp;Humidity;BMP_temperature;BMP_pressure;BME280_temperature;BME280_humidity;BME280_pressure;Samples;Min_cycle;Max_cycle;Signal;HPM_P1;HPM_P2
2022/04/18 00:01:59;;;;;;;9.68;5.35;;;5.30;85.80;;;;;;5069530;28;20036;-72
2022/04/18 00:04:25;;;;;;;10.20;5.22;;;5.30;86.00;;;;;;5071080;28;20631;-72
2022/04/18 00:06:50;;;;;;;10.48;5.22;;;5.20;86.50;;;;;;5071958;28;20064;-71
2022/04/18 00:09:16;;;;;;;9.30;4.85;;;5.20;87.10;;;;;;5068768;28;20025;-72
2022/04/18 00:11:42;;;;;;;13.77;6.53;;;5.20;87.60;;;;;;5068715;28;20471;-72
2022/04/18 00:14:09;;;;;;;12.63;6.10;;;5.20;88.20;;;;;;5074826;28;20103;-72
2022/04/18 00:16:35;;;;;;;9.10;6.00;;;5.20;88.30;;;;;;5068249;28;20020;-72
2022/04/18 00:19:00;;;;;;;9.75;4.53;;;5.20;88.30;;;;;;5066651;28;20028;-72
2022/04/18 00:21:26;;;;;;;8.75;4.80;;;5.20;88.30;;;;;;5066361;28;20028;-72
2022/04/18 00:23:52;;;;;;;8.52;5.60;;;5.10;86.70;;;;;;5067789;28;20032;-72
2022/04/18 00:26:18;;;;;;;8.93;5.40;;;5.10;85.80;;;;;;5069716;28;20012;-72
2022/04/18 00:28:43;;;;;;;8.63;5.30;;;5.10;85.80;;;;;;5069893;28;20039;-72
2022/04/18 00:31:09;;;;;;;8.25;4.72;;;5.00;86.60;;;;;;5049566;28;20055;-72
2022/04/18 00:33:35;;;;;;;9.82;5.13;;;4.90;85.90;;;;;;5067910;28;20036;-72
2022/04/18 00:36:01;;;;;;;11.65;5.10;;;4.80;86.70;;;;;;5057583;28;20031;-72
2022/04/18 00:38:28;;;;;;;8.55;5.10;;;4.80;87.70;;;;;;5069965;28;20039;-72
2022/04/18 00:40:55;;;;;;;11.95;5.80;;;4.80;88.40;;;;;;5069057;28;20028;-73
2022/04/18 00:43:45;;;;;;;6.60;4.72;;;4.70;89.90;;;;;;5069824;28;20028;-72
2022/04/18 00:46:12;;;;;;;7.82;5.00;;;4.70;89.60;;;;;;5058232;28;20044;-72
2022/04/18 00:48:39;;;;;;;9.70;4.82;;;4.60;89.00;;;;;;5068176;28;20399;-72
2022/04/18 00:51:08;;;;;;;7.13;4.80;;;4.60;88.50;;;;;;5069911;28;20569;-72
2022/04/18 00:53:36;;;;;;;8.13;4.82;;;4.50;89.40;;;;;;5068247;28;20170;-72
2022/04/18 00:56:03;;;;;;;9.68;5.30;;;4.50;90.20;;;;;;5066281;28;20409;-72
2022/04/18 00:58:29;;;;;;;7.93;5.10;;;4.50;90.40;;;;;;5072533;28;20041;-72
2022/04/18 01:00:56;;;;;;;8.60;4.97;;;4.50;90.20;;;;;;5050055;28;20403;-72
2022/04/18 01:03:21;;;;;;;7.45;4.90;;;4.50;90.40;;;;;;5048346;28;20125;-71
2022/04/18 01:05:48;;;;;;;8.93;4.43;;;4.50;90.40;;;;;;5053577;28;20523;-71
2022/04/18 01:08:15;;;;;;;10.18;5.13;;;4.50;90.70;;;;;;5052235;28;20032;-71
2022/04/18 01:10:42;;;;;;;9.60;5.05;;;4.40;91.00;;;;;;5057670;28;20100;-71
2022/04/18 01:13:09;;;;;;;9.02;5.20;;;4.40;90.80;;;;;;5049319;28;20484;-72
2022/04/18 01:15:52;;;;;;;7.20;4.82;;;4.30;90.80;;;;;;5056000;28;20036;-72
2022/04/18 01:18:39;;;;;;;8.00;4.88;;;4.30;90.70;;;;;;5063961;28;20048;-72
2022/04/18 01:21:23;;;;;;;8.07;4.30;;;4.30;90.20;;;;;;5063179;28;20500;-72
2022/04/18 01:28:58;;;;;;;7.93;5.25;;;4.20;90.00;;;;;;5053746;28;20147;-72
2022/04/18 01:29:55;;;;;;;7.97;5.07;;;4.00;90.10;;;;;;5053989;28;20025;-72
2022/04/18 01:32:22;;;;;;;6.65;4.63;;;4.00;90.60;;;;;;5048491;28;20037;-72
2022/04/18 01:34:48;;;;;;;8.57;4.95;;;3.90;90.50;;;;;;5074371;28;20127;-72
2022/04/18 01:37:14;;;;;;;9.20;5.20;;;3.90;90.70;;;;;;5055880;28;20058;-72
2022/04/18 01:39:39;;;;;;;7.47;4.78;;;3.90;90.70;;;;;;5067843;28;20046;-72
2022/04/18 01:42:05;;;;;;;7.82;4.63;;;3.90;90.90;;;;;;5070000;28;20032;-72
2022/04/18 01:44:31;;;;;;;9.32;4.97;;;3.80;91.10;;;;;;5071857;28;20031;-71
2022/04/18 01:46:57;;;;;;;8.88;4.65;;;3.80;91.40;;;;;;5057930;28;20117;-72
2022/04/18 01:49:23;;;;;;;9.65;5.38;;;3.80;91.50;;;;;;5052503;28;20040;-72
2022/04/18 01:51:49;;;;;;;7.35;5.18;;;3.70;91.60;;;;;;5075355;28;20105;-72
2022/04/18 01:54:15;;;;;;;10.95;5.28;;;3.80;91.90;;;;;;5053180;28;20024;-72
2022/04/18 01:56:42;;;;;;;10.27;5.32;;;3.80;91.80;;;;;;5056922;28;20024;-71
2022/04/18 01:59:08;;;;;;;13.88;6.15;;;3.70;91.40;;;;;;5072572;28;20044;-72
2022/04/18 02:01:34;;;;;;;12.65;6.43;;;3.60;91.10;;;;;;5057270;28;20159;-72
2022/04/18 02:04:00;;;;;;;12.30;5.32;;;3.60;90.80;;;;;;5062697;28;20032;-72
2022/04/18 02:06:26;;;;;;;8.77;5.25;;;3.60;90.60;;;;;;5072896;28;20025;-72
2022/04/18 02:08:51;;;;;;;10.98;5.50;;;3.50;90.70;;;;;;5054675;28;20047;-71
2022/04/18 02:11:21;;;;;;;7.70;5.38;;;3.50;91.00;;;;;;5069377;28;20109;-71
2022/04/18 02:13:47;;;;;;;11.07;5.72;;;3.50;91.00;;;;;;5074650;28;20057;-72
2022/04/18 02:16:13;;;;;;;9.88;5.22;;;3.40;90.80;;;;;;5056199;28;20710;-72
2022/04/18 02:18:42;;;;;;;10.02;5.85;;;3.40;90.70;;;;;;5034147;28;20028;-72
2022/04/18 02:21:11;;;;;;;10.70;5.10;;;3.40;90.80;;;;;;5059433;28;20086;-72
2022/04/18 02:23:38;;;;;;;8.65;5.72;;;3.30;90.90;;;;;;5076160;28;20239;-72
2022/04/18 02:26:04;;;;;;;9.77;6.38;;;3.30;91.30;;;;;;5069637;28;20023;-71
2022/04/18 02:28:31;;;;;;;8.75;5.57;;;3.20;91.10;;;;;;5071701;28;20024;-72
2022/04/18 02:31:04;;;;;;;10.80;6.40;;;3.20;91.10;;;;;;5069958;28;20028;-71
2022/04/18 02:33:30;;;;;;;9.23;5.28;;;3.20;91.10;;;;;;5055501;28;20024;-71
2022/04/18 02:35:56;;;;;;;10.05;6.00;;;3.10;90.90;;;;;;5054571;28;20071;-72
2022/04/18 02:38:24;;;;;;;11.48;5.60;;;3.10;91.10;;;;;;5057231;28;20118;-72
2022/04/18 02:40:50;;;;;;;11.38;6.10;;;3.10;91.30;;;;;;5054293;28;20139;-71
2022/04/18 02:43:16;;;;;;;8.88;5.47;;;3.00;91.50;;;;;;5070181;28;20106;-72
2022/04/18 02:45:49;;;;;;;12.27;6.13;;;3.00;91.70;;;;;;5054173;28;20020;-71
2022/04/18 02:48:34;;;;;;;10.02;6.00;;;3.00;92.00;;;;;;5071999;28;20039;-71
2022/04/18 02:51:03;;;;;;;10.65;6.07;;;3.00;92.30;;;;;;5061629;28;20024;-72
2022/04/18 02:53:31;;;;;;;12.38;6.45;;;3.00;92.40;;;;;;5054022;28;20032;-72
2022/04/18 02:56:06;;;;;;;9.80;6.15;;;3.00;92.40;;;;;;5047208;28;20043;-71
2022/04/18 02:58:35;;;;;;;10.75;6.32;;;2.90;92.00;;;;;;5058065;28;20695;-72
2022/04/18 03:01:00;;;;;;;10.90;6.18;;;2.90;91.70;;;;;;5034204;28;20036;-72
2022/04/18 03:03:27;;;;;;;12.05;7.03;;;2.90;91.80;;;;;;5056656;28;20040;-72
2022/04/18 03:05:54;;;;;;;12.93;6.75;;;2.90;92.30;;;;;;5050171;28;20450;-72
2022/04/18 03:08:19;;;;;;;13.38;6.30;;;2.90;92.30;;;;;;5064664;28;20028;-72
2022/04/18 03:11:04;;;;;;;11.88;6.75;;;2.90;92.10;;;;;;5085109;28;20024;-71
2022/04/18 03:13:32;;;;;;;10.00;6.50;;;2.80;92.10;;;;;;5084594;28;20036;-72
2022/04/18 03:16:00;;;;;;;13.20;6.63;;;2.80;92.10;;;;;;5061690;28;20036;-72
2022/04/18 03:18:27;;;;;;;10.23;6.35;;;2.80;92.10;;;;;;5063766;28;20179;-72
2022/04/18 03:20:54;;;;;;;11.93;6.32;;;2.70;91.90;;;;;;5059667;28;20032;-71
2022/04/18 03:23:20;;;;;;;10.40;6.32;;;2.70;91.90;;;;;;5065658;28;20024;-71
2022/04/18 03:26:04;;;;;;;10.18;6.00;;;2.60;92.00;;;;;;5055842;28;20031;-72
2022/04/18 03:28:59;;;;;;;9.85;5.88;;;2.60;92.30;;;;;;5061485;28;20143;-71
2022/04/18 03:31:25;;;;;;;10.32;5.40;;;2.50;92.50;;;;;;5064173;28;20024;-72
2022/04/18 03:33:51;;;;;;;9.45;5.82;;;2.50;92.60;;;;;;5074835;28;20069;-72
2022/04/18 03:41:47;;;;;;;12.65;6.60;;;2.40;92.60;;;;;;5070859;28;20061;-73
2022/04/18 03:44:14;;;;;;;9.27;5.85;;;2.40;92.80;;;;;;5069511;28;20553;-73
2022/04/18 03:46:41;;;;;;;13.32;6.45;;;2.40;92.90;;;;;;5068330;28;20193;-73
2022/04/18 03:49:06;;;;;;;10.88;6.70;;;2.30;93.00;;;;;;5076707;28;20135;-73
2022/04/18 03:51:34;;;;;;;10.88;7.22;;;2.30;92.90;;;;;;5065649;28;20027;-73
2022/04/18 03:54:00;;;;;;;11.73;6.63;;;2.30;92.80;;;;;;5066925;28;20024;-73
2022/04/18 03:56:30;;;;;;;9.32;6.07;;;2.20;92.80;;;;;;5071020;28;20130;-73
2022/04/18 03:59:16;;;;;;;13.10;6.13;;;2.30;92.60;;;;;;5081807;28;20032;-74
2022/04/18 04:02:02;;;;;;;13.70;6.40;;;2.20;92.70;;;;;;5056324;28;20542;-74
2022/04/18 04:04:30;;;;;;;9.35;6.22;;;2.20;92.80;;;;;;5064331;28;20035;-73
2022/04/18 04:07:00;;;;;;;12.32;6.65;;;2.20;92.80;;;;;;5065968;28;20123;-74
2022/04/18 04:09:26;;;;;;;10.68;5.60;;;2.20;92.80;;;;;;5067207;28;20032;-74
2022/04/18 04:11:51;;;;;;;14.77;6.80;;;2.20;93.10;;;;;;5078889;28;20028;-73
2022/04/18 04:14:20;;;;;;;10.93;6.38;;;2.20;93.40;;;;;;5063125;28;20084;-73
2022/04/18 04:16:46;;;;;;;11.05;6.60;;;2.40;93.40;;;;;;5049489;28;20975;-74
2022/04/18 04:19:12;;;;;;;10.15;6.45;;;2.40;93.20;;;;;;5061004;28;20024;-75
2022/04/18 04:21:39;;;;;;;12.07;6.70;;;2.40;92.90;;;;;;5065811;28;20680;-73
2022/04/18 04:24:07;;;;;;;10.38;6.18;;;2.50;92.70;;;;;;5066410;28;20470;-74
2022/04/18 04:26:44;;;;;;;11.43;6.60;;;2.50;92.50;;;;;;5071476;28;20024;-73
2022/04/18 04:29:12;;;;;;;16.73;6.70;;;2.50;92.30;;;;;;5055041;28;20035;-73
2022/04/18 04:31:53;;;;;;;10.48;6.80;;;2.50;92.30;;;;;;5057265;28;20024;-73
2022/04/18 04:34:19;;;;;;;9.48;6.22;;;2.50;92.30;;;;;;5059966;28;20024;-73
2022/04/18 04:36:53;;;;;;;10.18;6.15;;;2.60;92.30;;;;;;5062356;28;20028;-73
2022/04/18 04:39:23;;;;;;;12.85;6.63;;;2.70;92.40;;;;;;5076036;28;20395;-73
2022/04/18 04:41:49;;;;;;;10.82;6.53;;;2.70;92.60;;;;;;5075131;28;20019;-73
2022/04/18 04:44:16;;;;;;;12.43;6.88;;;2.80;92.70;;;;;;5060853;28;20035;-74
2022/04/18 04:46:57;;;;;;;10.63;6.07;;;3.00;92.60;;;;;;5062458;28;20031;-73
2022/04/18 04:49:25;;;;;;;11.05;6.65;;;3.00;92.50;;;;;;5066352;28;20021;-74
2022/04/18 04:52:05;;;;;;;9.77;5.90;;;3.10;92.20;;;;;;5060901;28;20026;-74
2022/04/18 04:54:32;;;;;;;10.30;6.40;;;3.10;91.40;;;;;;5062070;28;20027;-73
2022/04/18 04:56:59;;;;;;;8.85;5.82;;;3.10;90.90;;;;;;5061151;28;20069;-73
2022/04/18 04:59:35;;;;;;;8.98;6.18;;;3.20;90.60;;;;;;5062325;28;20031;-73
2022/04/18 05:02:01;;;;;;;10.00;6.07;;;3.20;90.60;;;;;;5056959;28;20024;-73
2022/04/18 05:04:27;;;;;;;10.45;6.38;;;3.30;90.70;;;;;;5057668;28;20427;-73
2022/04/18 05:06:56;;;;;;;12.90;6.78;;;3.30;90.80;;;;;;5064601;28;20027;-73
2022/04/18 05:09:34;;;;;;;12.77;6.25;;;3.40;91.10;;;;;;5073942;28;20070;-73
2022/04/18 05:12:00;;;;;;;9.25;6.25;;;3.50;91.20;;;;;;5073057;28;20024;-73
2022/04/18 05:14:26;;;;;;;13.65;6.97;;;3.60;91.30;;;;;;5059534;28;20028;-73
2022/04/18 05:17:15;;;;;;;10.70;6.45;;;3.80;91.30;;;;;;5072064;28;20390;-73
2022/04/18 05:19:46;;;;;;;10.38;6.63;;;3.90;91.20;;;;;;5069140;28;20431;-72
2022/04/18 05:22:24;;;;;;;13.60;6.22;;;4.10;91.10;;;;;;5062855;28;20097;-73
2022/04/18 05:24:51;;;;;;;9.57;6.32;;;4.30;90.90;;;;;;5085061;28;20701;-73
2022/04/18 05:27:26;;;;;;;8.27;5.53;;;4.50;90.70;;;;;;5062911;28;20039;-73
2022/04/18 05:29:52;;;;;;;11.35;6.07;;;4.80;90.50;;;;;;5054090;28;20274;-72
2022/04/18 05:32:18;;;;;;;11.60;6.70;;;5.10;90.00;;;;;;5065580;28;20028;-72
2022/04/18 05:34:54;;;;;;;11.18;6.88;;;5.40;88.60;;;;;;5064137;28;20028;-73
2022/04/18 05:37:24;;;;;;;8.95;6.03;;;5.90;87.50;;;;;;5062850;28;20040;-72
2022/04/18 05:39:58;;;;;;;11.10;6.18;;;6.40;86.10;;;;;;5057699;28;20024;-73
2022/04/18 05:42:30;;;;;;;11.52;5.85;;;7.40;83.40;;;;;;5062824;28;20024;-73
2022/04/18 05:45:02;;;;;;;9.70;5.80;;;8.20;79.60;;;;;;5056751;28;20092;-73
2022/04/18 05:47:27;;;;;;;7.90;5.60;;;8.80;76.50;;;;;;5076556;28;20032;-72
2022/04/18 05:49:54;;;;;;;8.73;5.85;;;9.70;73.90;;;;;;5057286;28;20028;-73
2022/04/18 05:52:20;;;;;;;9.70;5.40;;;11.20;68.30;;;;;;5063333;28;20038;-73
2022/04/18 05:54:51;;;;;;;10.38;5.20;;;13.00;61.40;;;;;;5065193;28;20058;-73
2022/04/18 05:57:17;;;;;;;9.82;5.75;;;14.60;55.30;;;;;;5075347;28;20059;-73
2022/04/18 05:59:48;;;;;;;10.27;5.82;;;15.90;50.60;;;;;;5061951;28;20218;-71
2022/04/18 06:02:17;;;;;;;9.07;5.38;;;16.90;47.00;;;;;;5068545;28;20032;-73
2022/04/18 06:04:53;;;;;;;8.45;5.63;;;18.30;44.10;;;;;;5061611;28;20028;-74
2022/04/18 06:07:21;;;;;;;9.45;5.13;;;19.60;40.80;;;;;;5084096;28;20033;-72
2022/04/18 06:10:06;;;;;;;11.05;5.65;;;21.10;37.90;;;;;;5057253;28;20827;-70
2022/04/18 06:12:32;;;;;;;8.68;5.70;;;22.70;35.00;;;;;;5066675;28;20399;-71
2022/04/18 06:14:59;;;;;;;9.30;5.80;;;23.60;32.80;;;;;;5054052;28;20549;-70
2022/04/18 06:17:24;;;;;;;8.18;5.40;;;23.80;31.60;;;;;;5063186;28;20116;-70
2022/04/18 06:19:55;;;;;;;12.65;6.25;;;24.10;31.60;;;;;;5069071;28;20031;-70
2022/04/18 06:22:21;;;;;;;11.07;6.20;;;24.50;31.30;;;;;;5060821;28;20439;-70
2022/04/18 06:24:46;;;;;;;10.98;6.07;;;25.10;30.20;;;;;;5063006;28;20443;-71
2022/04/18 06:27:16;;;;;;;10.43;5.97;;;24.90;30.00;;;;;;5092689;28;20035;-71
2022/04/18 06:29:43;;;;;;;9.55;5.57;;;25.10;29.80;;;;;;5062523;28;20036;-71
2022/04/18 06:32:11;;;;;;;11.55;6.78;;;26.10;29.40;;;;;;5074697;28;20016;-71
2022/04/18 06:34:37;;;;;;;7.30;5.45;;;25.80;28.60;;;;;;5070404;28;20112;-71
2022/04/18 06:37:11;;;;;;;10.98;6.72;;;25.50;29.10;;;;;;5076384;28;20611;-71
2022/04/18 06:39:43;;;;;;;10.77;6.43;;;25.60;29.40;;;;;;5061069;28;20032;-71
2022/04/18 06:42:13;;;;;;;10.75;6.63;;;26.60;28.80;;;;;;5063613;28;20070;-71
2022/04/18 06:45:02;;;;;;;10.25;6.22;;;28.40;27.50;;;;;;5084519;28;20027;-71
2022/04/18 06:47:29;;;;;;;11.82;6.90;;;30.10;26.60;;;;;;5071080;28;20032;-71
2022/04/18 06:50:11;;;;;;;10.27;6.53;;;30.90;25.90;;;;;;5064879;28;20019;-71
2022/04/18 06:52:55;;;;;;;12.52;7.13;;;29.50;25.80;;;;;;5085741;28;20043;-71
2022/04/18 06:55:26;;;;;;;13.07;7.55;;;27.10;27.00;;;;;;5082478;28;20813;-71
2022/04/18 06:57:52;;;;;;;11.57;7.43;;;26.80;27.70;;;;;;5060098;28;20044;-71
2022/04/18 07:00:18;;;;;;;10.43;6.88;;;27.70;27.10;;;;;;5050646;28;20458;-71
2022/04/18 07:02:45;;;;;;;12.77;7.40;;;27.40;26.80;;;;;;5064535;28;20469;-71
2022/04/18 07:05:11;;;;;;;10.88;6.75;;;27.50;27.20;;;;;;5054068;28;20055;-71
2022/04/18 07:07:37;;;;;;;10.50;6.70;;;26.70;27.70;;;;;;5065214;28;20634;-71
2022/04/18 07:10:04;;;;;;;12.75;6.75;;;25.30;28.70;;;;;;5049283;28;20434;-71
2022/04/18 07:12:30;;;;;;;11.10;6.32;;;24.00;29.70;;;;;;5061094;28;20071;-71
2022/04/18 07:15:00;;;;;;;10.50;6.72;;;24.00;29.90;;;;;;5088387;28;20290;-71
2022/04/18 07:17:28;;;;;;;12.35;6.78;;;23.80;30.00;;;;;;5048254;28;20119;-71
2022/04/18 07:19:55;;;;;;;13.00;6.13;;;22.70;30.90;;;;;;5066364;28;20043;-71
2022/04/18 07:22:23;;;;;;;13.13;6.90;;;23.40;30.70;;;;;;5066013;28;20016;-71
2022/04/18 07:24:52;;;;;;;13.02;7.13;;;24.80;29.70;;;;;;5060296;28;20054;-71
2022/04/18 07:27:21;;;;;;;12.80;6.90;;;26.80;28.20;;;;;;5065182;28;20165;-71
2022/04/18 07:29:55;;;;;;;11.30;6.13;;;28.60;26.80;;;;;;5066514;28;20031;-71
2022/04/18 07:32:21;;;;;;;11.13;6.63;;;29.30;26.50;;;;;;5064543;28;20036;-72
2022/04/18 07:34:48;;;;;;;8.98;5.75;;;30.10;25.80;;;;;;5061258;28;20038;-70
2022/04/18 07:37:24;;;;;;;7.70;4.50;;;29.20;25.90;;;;;;5059194;28;20115;-70
2022/04/18 07:39:50;;;;;;;10.60;6.22;;;28.40;26.00;;;;;;5058051;28;20031;-70
2022/04/18 07:42:16;;;;;;;8.45;5.38;;;28.20;26.00;;;;;;5066489;28;20088;-71
2022/04/18 07:44:43;;;;;;;7.53;4.63;;;29.00;26.10;;;;;;5056447;28;20020;-71
2022/04/18 07:47:09;;;;;;;6.40;4.18;;;29.70;25.10;;;;;;5063950;28;20147;-71
2022/04/18 07:49:35;;;;;;;7.47;4.03;;;28.50;25.50;;;;;;5062327;28;20074;-71
2022/04/18 07:52:01;;;;;;;6.72;4.35;;;27.80;26.40;;;;;;5068085;28;20023;-71
2022/04/18 07:54:36;;;;;;;7.90;4.97;;;28.10;25.60;;;;;;5068225;28;20185;-71
2022/04/18 07:57:04;;;;;;;7.13;4.55;;;27.80;26.00;;;;;;5065501;28;20107;-71
2022/04/18 07:59:38;;;;;;;7.57;4.60;;;26.90;26.80;;;;;;5049567;28;20051;-71
2022/04/18 08:02:08;;;;;;;8.52;4.60;;;26.00;26.90;;;;;;5069832;28;20152;-71
2022/04/18 08:04:53;;;;;;;8.05;4.63;;;25.90;27.40;;;;;;5080205;28;20109;-71
2022/04/18 08:07:26;;;;;;;6.97;4.47;;;27.60;26.50;;;;;;5050166;28;20062;-71
2022/04/18 08:09:53;;;;;;;6.70;4.15;;;28.40;25.90;;;;;;5055433;28;20025;-71
2022/04/18 08:12:18;;;;;;;7.57;4.45;;;29.00;25.10;;;;;;5066064;28;20028;-70
2022/04/18 08:15:19;;;;;;;9.05;5.05;;;28.10;25.10;;;;;;4996955;28;20790;-70
2022/04/18 08:17:46;;;;;;;8.57;5.25;;;27.20;26.40;;;;;;5052173;28;20032;-71
2022/04/18 08:20:13;;;;;;;9.00;4.80;;;28.00;26.60;;;;;;5082389;28;20031;-71
2022/04/18 08:22:39;;;;;;;6.60;4.18;;;28.40;26.30;;;;;;5068537;28;20059;-71
2022/04/18 08:25:24;;;;;;;7.88;4.50;;;28.20;26.50;;;;;;5071915;28;20106;-71
2022/04/18 08:28:08;;;;;;;7.53;4.25;;;27.20;27.00;;;;;;5082675;28;20070;-70
2022/04/18 08:30:35;;;;;;;9.93;4.80;;;25.10;28.40;;;;;;5063378;28;20027;-71
2022/04/18 08:33:18;;;;;;;10.00;4.30;;;24.30;28.80;;;;;;5057616;28;20034;-70
2022/04/18 08:35:44;;;;;;;7.25;4.10;;;25.90;28.10;;;;;;5062392;28;20564;-70
2022/04/18 08:38:10;;;;;;;5.25;3.55;;;27.60;25.80;;;;;;5055652;28;20471;-73
2022/04/18 08:41:09;;;;;;;7.72;4.18;;;26.40;26.80;;;;;;5000645;28;20038;-71
2022/04/18 08:43:36;;;;;;;10.60;4.95;;;25.50;28.10;;;;;;5060751;28;20059;-71
2022/04/18 08:46:08;;;;;;;8.70;4.82;;;26.00;28.10;;;;;;5062862;28;20452;-71
2022/04/18 08:54:08;;;;;;;8.13;4.30;;;25.70;27.80;;;;;;5062280;28;20042;-71
2022/04/18 08:56:34;;;;;;;6.32;3.85;;;28.30;27.10;;;;;;5045173;28;20037;-72
2022/04/18 08:58:59;;;;;;;7.35;4.15;;;30.60;25.30;;;;;;5063367;28;20104;-71
2022/04/18 09:01:27;;;;;;;7.78;4.38;;;34.00;23.40;;;;;;5074830;28;20042;-71
2022/04/18 09:04:09;;;;;;;6.18;3.25;;;34.50;22.40;;;;;;5058227;28;20035;-71
2022/04/18 09:06:43;;;;;;;7.47;3.45;;;34.40;22.90;;;;;;5051163;28;20054;-72
2022/04/18 09:09:27;;;;;;;5.88;3.30;;;36.00;21.50;;;;;;5066339;28;20032;-71
2022/04/18 09:11:54;;;;;;;6.30;3.40;;;36.40;21.90;;;;;;5060164;28;20057;-71
2022/04/18 09:14:25;;;;;;;6.60;3.33;;;36.30;21.00;;;;;;5070416;28;20033;-71
2022/04/18 09:16:51;;;;;;;4.95;2.80;;;35.40;21.80;;;;;;5085196;28;20030;-72
2022/04/18 09:19:46;;;;;;;7.25;2.97;;;35.50;21.90;;;;;;5048785;28;20123;-71
2022/04/18 09:22:14;;;;;;;4.68;2.80;;;36.30;21.60;;;;;;5043773;28;20032;-70
2022/04/18 09:24:48;;;;;;;3.75;2.42;;;36.70;21.30;;;;;;5054514;28;20051;-72
2022/04/18 09:27:23;;;;;;;6.63;3.13;;;36.60;21.50;;;;;;5059409;28;20044;-72
2022/04/18 09:30:10;;;;;;;6.45;2.80;;;37.40;20.10;;;;;;5068374;28;20037;-72
2022/04/18 09:33:06;;;;;;;3.22;2.38;;;38.00;20.00;;;;;;5053642;28;20025;-72
2022/04/18 09:36:15;;;;;;;5.15;2.50;;;37.80;19.90;;;;;;5075316;28;20567;-73
2022/04/18 09:38:46;;;;;;;2.72;2.00;;;36.10;21.30;;;;;;5063974;28;20028;-74
2022/04/18 09:41:34;;;;;;;2.63;1.83;;;34.00;21.90;;;;;;5068464;28;20068;-71
2022/04/18 09:44:12;;;;;;;4.68;2.25;;;31.30;22.30;;;;;;5058930;28;20548;-71
2022/04/18 09:46:44;;;;;;;4.80;2.22;;;28.30;25.00;;;;;;5058373;28;20032;-71
2022/04/18 09:49:16;;;;;;;3.58;2.40;;;27.80;24.90;;;;;;5056202;28;20032;-70
2022/04/18 09:51:51;;;;;;;3.17;2.10;;;30.30;23.70;;;;;;5057833;28;20030;-70
2022/04/18 09:54:20;;;;;;;3.63;2.40;;;32.60;23.10;;;;;;5060093;28;20668;-73
2022/04/18 09:56:50;;;;;;;2.60;1.48;;;33.40;21.90;;;;;;5074954;28;20043;-72
2022/04/18 09:59:18;;;;;;;3.83;2.00;;;33.00;22.30;;;;;;5081323;28;20032;-72
2022/04/18 10:01:44;;;;;;;1.60;1.40;;;33.00;22.20;;;;;;5073898;28;20147;-72
2022/04/18 10:04:11;;;;;;;3.45;2.28;;;34.90;21.30;;;;;;5077804;28;20015;-72
2022/04/18 10:06:40;;;;;;;2.70;1.60;;;35.80;20.90;;;;;;5078531;28;20024;-72
2022/04/18 10:09:08;;;;;;;2.47;1.83;;;33.80;21.60;;;;;;5081870;28;20032;-72
2022/04/18 10:11:34;;;;;;;2.42;1.40;;;33.70;20.80;;;;;;5071613;28;20027;-72
2022/04/18 10:14:00;;;;;;;2.60;1.92;;;33.70;21.50;;;;;;5076192;28;20027;-72
2022/04/18 10:16:28;;;;;;;3.13;1.75;;;32.20;22.50;;;;;;5070742;28;20058;-71
2022/04/18 10:18:59;;;;;;;2.60;1.70;;;30.60;22.90;;;;;;5076927;28;20459;-71
2022/04/18 10:21:32;;;;;;;2.40;1.60;;;28.70;23.60;;;;;;5087880;28;20038;-72
2022/04/18 10:24:10;;;;;;;2.50;1.73;;;26.60;25.20;;;;;;5071110;28;20098;-73
2022/04/18 10:27:04;;;;;;;3.42;2.05;;;24.80;25.90;;;;;;5086701;28;20084;-72
2022/04/18 10:29:39;;;;;;;3.15;1.75;;;23.30;27.70;;;;;;5080609;28;20024;-72
2022/04/18 10:32:07;;;;;;;5.82;1.70;;;22.50;28.20;;;;;;5061585;28;20794;-72
2022/04/18 10:34:34;;;;;;;3.20;1.90;;;22.30;28.50;;;;;;5086362;28;20020;-72
2022/04/18 10:37:02;;;;;;;3.42;1.60;;;22.50;29.70;;;;;;5075559;28;20037;-72
2022/04/18 10:39:41;;;;;;;4.50;1.80;;;23.40;28.10;;;;;;5060028;28;20028;-71
2022/04/18 10:42:30;;;;;;;2.75;1.80;;;27.40;25.30;;;;;;5057080;28;20028;-71
2022/04/18 10:45:14;;;;;;;2.90;1.80;;;33.40;22.70;;;;;;5081697;28;20035;-72
2022/04/18 10:47:55;;;;;;;2.35;1.38;;;37.50;20.20;;;;;;5065669;28;20028;-72
2022/04/18 10:50:22;;;;;;;3.67;2.00;;;37.80;19.70;;;;;;5079538;28;20102;-71
2022/04/18 10:53:12;;;;;;;3.50;1.30;;;37.00;20.60;;;;;;5079924;28;20020;-72
2022/04/18 10:55:58;;;;;;;2.63;1.70;;;36.60;20.00;;;;;;5074783;28;20828;-72
2022/04/18 10:58:29;;;;;;;1.88;1.05;;;36.00;20.80;;;;;;5075040;28;20115;-72
2022/04/18 11:00:58;;;;;;;4.10;1.90;;;34.50;21.50;;;;;;5056147;28;20039;-72
2022/04/18 11:03:38;;;;;;;2.75;2.10;;;33.30;21.30;;;;;;5082661;28;20032;-72
2022/04/18 11:06:16;;;;;;;2.05;1.50;;;31.60;21.80;;;;;;5079903;28;20504;-72
2022/04/18 11:08:58;;;;;;;2.63;1.83;;;29.70;22.90;;;;;;5078641;28;20042;-72
2022/04/18 11:11:24;;;;;;;1.77;1.50;;;27.10;24.00;;;;;;5073333;28;20880;-72
2022/04/18 11:13:50;;;;;;;2.90;1.90;;;24.80;26.50;;;;;;5078188;28;20032;-72
2022/04/18 11:16:22;;;;;;;2.97;1.38;;;23.10;27.90;;;;;;5068952;28;20051;-72
2022/04/18 11:19:17;;;;;;;2.38;1.58;;;21.60;29.90;;;;;;5071279;28;20032;-72
2022/04/18 11:24:52;;;;;;;3.40;1.73;;;20.00;31.10;;;;;;5077802;28;20028;-72
2022/04/18 11:27:26;;;;;;;3.60;1.48;;;19.60;31.20;;;;;;5079174;28;20515;-72
2022/04/18 11:29:54;;;;;;;2.95;1.52;;;19.30;30.90;;;;;;5075518;28;20115;-72
2022/04/18 11:32:23;;;;;;;3.35;1.92;;;19.20;31.70;;;;;;5073727;28;20556;-71
2022/04/18 11:34:51;;;;;;;2.22;1.35;;;19.10;32.00;;;;;;5078197;28;20039;-70
2022/04/18 11:37:24;;;;;;;1.95;1.58;;;19.00;32.70;;;;;;5078425;28;20042;-76
2022/04/18 11:39:55;;;;;;;3.47;1.98;;;18.80;33.40;;;;;;5057187;28;20108;-74
2022/04/18 11:42:27;;;;;;;2.85;1.60;;;18.70;33.80;;;;;;5072668;28;20032;-72
2022/04/18 11:44:55;;;;;;;2.70;1.63;;;18.60;35.00;;;;;;5074776;28;20032;-75
2022/04/18 11:47:29;;;;;;;3.53;1.52;;;18.80;35.90;;;;;;5075266;28;20029;-73
2022/04/18 11:49:58;;;;;;;2.58;1.30;;;19.00;36.60;;;;;;5074161;28;20035;-73
2022/04/18 11:52:29;;;;;;;4.45;1.75;;;19.20;35.80;;;;;;5078853;28;20080;-74
2022/04/18 11:54:57;;;;;;;3.47;1.88;;;19.40;35.90;;;;;;5084138;28;20139;-73
2022/04/18 11:57:23;;;;;;;3.90;1.73;;;19.40;34.80;;;;;;5076968;28;20479;-74
2022/04/18 11:59:49;;;;;;;4.25;1.90;;;19.40;35.60;;;;;;5074930;28;20035;-73
2022/04/18 12:07:46;;;;;;;2.80;1.45;;;19.30;34.20;;;;;;5070246;28;20287;-68
2022/04/18 12:10:24;;;;;;;3.40;1.45;;;19.10;35.30;;;;;;5078960;28;20024;-68
2022/04/18 12:12:50;;;;;;;2.08;1.60;;;19.10;34.50;;;;;;5083272;28;20089;-72
2022/04/18 12:15:16;;;;;;;2.45;1.40;;;18.90;33.00;;;;;;5080670;28;20032;-70
2022/04/18 12:17:42;;;;;;;2.67;1.48;;;18.80;34.60;;;;;;5081375;28;20036;-72
2022/04/18 12:20:28;;;;;;;3.60;1.33;;;18.80;34.80;;;;;;5081147;28;20171;-72
2022/04/18 12:23:00;;;;;;;2.85;1.30;;;18.80;36.40;;;;;;5056345;28;20032;-72
2022/04/18 12:25:33;;;;;;;3.63;1.63;;;18.70;36.60;;;;;;5078073;28;20459;-71
2022/04/18 12:28:02;;;;;;;2.72;1.20;;;18.80;35.90;;;;;;5082737;28;20100;-71
2022/04/18 12:30:28;;;;;;;3.30;1.25;;;18.80;36.10;;;;;;5080051;28;20728;-74
2022/04/18 12:32:54;;;;;;;2.65;1.27;;;18.80;33.70;;;;;;5071283;28;20522;-71
2022/04/18 12:35:43;;;;;;;1.35;1.10;;;18.70;35.50;;;;;;5059479;28;20027;-76
2022/04/18 12:38:10;;;;;;;2.22;1.02;;;18.80;36.60;;;;;;5077407;28;20050;-74
2022/04/18 12:40:38;;;;;;;2.38;0.90;;;18.70;35.20;;;;;;5073401;28;20032;-75
2022/04/18 12:43:08;;;;;;;1.42;1.10;;;18.70;33.80;;;;;;5064139;28;20032;-73
2022/04/18 12:46:07;;;;;;;2.58;1.60;;;18.70;34.30;;;;;;5077847;28;20462;-73
2022/04/18 12:48:35;;;;;;;4.13;1.02;;;18.70;35.10;;;;;;5077268;28;20988;-74
2022/04/18 12:51:03;;;;;;;3.65;1.48;;;18.60;34.60;;;;;;5068032;28;20032;-73
2022/04/18 12:53:46;;;;;;;1.63;0.90;;;18.50;34.30;;;;;;5081272;28;20522;-73
2022/04/18 12:56:20;;;;;;;0.80;0.80;;;18.40;36.50;;;;;;5056637;28;20103;-73
2022/04/18 12:58:48;;;;;;;2.40;1.10;;;18.40;35.70;;;;;;5069768;28;20037;-73
2022/04/18 13:01:30;;;;;;;1.77;0.93;;;18.30;35.10;;;;;;5071022;28;20031;-74
2022/04/18 13:03:56;;;;;;;1.40;0.90;;;18.30;35.40;;;;;;5076036;28;20039;-73
2022/04/18 13:06:22;;;;;;;1.38;1.08;;;18.20;34.00;;;;;;5070158;28;20032;-73
2022/04/18 13:08:48;;;;;;;1.13;0.80;;;18.00;33.90;;;;;;5072285;28;20024;-74
2022/04/18 13:11:16;;;;;;;1.15;0.90;;;17.90;35.30;;;;;;5076680;28;20040;-73
2022/04/18 13:13:42;;;;;;;1.23;0.90;;;17.90;35.70;;;;;;5074410;28;20036;-73
2022/04/18 13:16:24;;;;;;;1.70;0.95;;;17.90;36.30;;;;;;5071285;28;20036;-74
2022/04/18 13:19:01;;;;;;;1.83;0.80;;;18.20;37.20;;;;;;5074296;28;20131;-73
2022/04/18 13:21:28;;;;;;;0.98;0.82;;;18.20;35.10;;;;;;5077033;28;20446;-73
2022/04/18 13:24:01;;;;;;;2.00;1.30;;;18.30;34.00;;;;;;5075401;28;20032;-74
2022/04/18 13:26:28;;;;;;;1.75;1.00;;;18.30;34.10;;;;;;5078761;28;20338;-73
2022/04/18 13:28:54;;;;;;;5.30;1.10;;;18.30;35.00;;;;;;5071440;28;20035;-73
2022/04/18 13:31:21;;;;;;;1.77;1.00;;;18.30;35.00;;;;;;5078138;28;20020;-73